sensor_id;sensor_type;location;lat;lon;timestamp;pressure;altitude;pressure_sealevel;temperature;humidity
10348;BME280;5220;43.192;23.284;2023-06-22T00:02:01;97291.59;;;22.74;100.00
10348;BME280;5220;43.192;23.284;2023-06-22T00:04:28;97280.81;;;22.75;100.00
10348;BME280;5220;43.192;23.284;2023-06-22T00:06:55;97282.81;;;22.73;100.00
10348;BME280;5220;43.192;23.284;2023-06-22T00:09:21;97283.47;;;22.75;100.00
10348;BME280;5220;43.192;23.284;2023-06-22T00:11:48;97279.78;;;22.76;100.00
10348;BME280;5220;43.192;23.284;2023-06-22T00:14:15;97289.25;;;22.79;100.00
10348;BME280;5220;43.192;23.284;2023-06-22T00:16:41;97285.94;;;22.77;100.00
10348;BME280;5220;43.192;23.284;2023-06-22T00:19:10;97281.34;;;22.71;100.00
10348;BME280;5220;43.192;23.284;2023-06-22T00:21:37;97275.78;;;22.58;100.00
10348;BME280;5220;43.192;23.284;2023-06-22T00:24:05;97279.94;;;22.60;100.00
10348;BME280;5220;43.192;23.284;2023-06-22T00:26:32;97284.06;;;22.63;100.00
10348;BME280;5220;43.192;23.284;2023-06-22T00:28:59;97276.25;;;22.61;100.00
10348;BME280;5220;43.192;23.284;2023-06-22T00:31:25;97288.69;;;22.61;100.00
10348;BME280;5220;43.192;23.284;2023-06-22T00:33:52;97284.56;;;22.58;100.00
10348;BME280;5220;43.192;23.284;2023-06-22T00:36:20;97288.69;;;22.61;100.00
10348;BME280;5220;43.192;23.284;2023-06-22T00:38:50;97287.88;;;22.60;100.00
10348;BME280;5220;43.192;23.284;2023-06-22T00:41:17;97284.56;;;22.58;100.00
10348;BME280;5220;43.192;23.284;2023-06-22T00:43:45;97292.25;;;22.53;100.00
10348;BME280;5220;43.192;23.284;2023-06-22T00:46:12;97299.72;;;22.49;100.00
10348;BME280;5220;43.192;23.284;2023-06-22T00:48:39;97300.91;;;22.47;100.00
10348;BME280;5220;43.192;23.284;2023-06-22T00:51:07;97300.44;;;22.43;100.00
10348;BME280;5220;43.192;23.284;2023-06-22T00:53:35;97296.13;;;22.42;100.00
10348;BME280;5220;43.192;23.284;2023-06-22T00:56:03;97294.50;;;22.41;100.00
10348;BME280;5220;43.192;23.284;2023-06-22T00:58:31;97287.06;;;22.37;100.00
10348;BME280;5220;43.192;23.284;2023-06-22T01:00:58;97282.75;;;22.36;100.00
10348;BME280;5220;43.192;23.284;2023-06-22T01:03:25;97281.47;;;22.32;100.00
10348;BME280;5220;43.192;23.284;2023-06-22T01:05:54;97278.50;;;22.27;100.00
10348;BME280;5220;43.192;23.284;2023-06-22T01:08:31;97280.66;;;22.31;100.00
10348;BME280;5220;43.192;23.284;2023-06-22T01:11:06;97285.59;;;22.34;100.00
10348;BME280;5220;43.192;23.284;2023-06-22T01:13:38;97286.72;;;22.40;100.00
10348;BME280;5220;43.192;23.284;2023-06-22T01:16:10;97286.81;;;22.46;100.00
10348;BME280;5220;43.192;23.284;2023-06-22T01:18:41;97290.78;;;22.50;100.00
10348;BME280;5220;43.192;23.284;2023-06-22T01:21:12;97288.94;;;22.51;100.00
10348;BME280;5220;43.192;23.284;2023-06-22T01:23:51;97284.66;;;22.50;100.00
10348;BME280;5220;43.192;23.284;2023-06-22T01:26:28;97295.78;;;22.45;100.00
10348;BME280;5220;43.192;23.284;2023-06-22T01:29:04;97303.09;;;22.43;100.00
10348;BME280;5220;43.192;23.284;2023-06-22T01:31:32;97309.75;;;22.39;100.00
10348;BME280;5220;43.192;23.284;2023-06-22T01:34:03;97321.88;;;22.34;100.00
10348;BME280;5220;43.192;23.284;2023-06-22T01:36:32;97318.94;;;22.29;100.00
10348;BME280;5220;43.192;23.284;2023-06-22T01:39:00;97324.41;;;22.27;100.00
10348;BME280;5220;43.192;23.284;2023-06-22T01:41:30;97323.28;;;22.22;100.00
10348;BME280;5220;43.192;23.284;2023-06-22T01:43:57;97327.94;;;22.20;100.00
10348;BME280;5220;43.192;23.284;2023-06-22T01:46:27;97324.03;;;22.08;100.00
10348;BME280;5220;43.192;23.284;2023-06-22T01:48:54;97331.63;;;22.11;100.00
10348;BME280;5220;43.192;23.284;2023-06-22T01:51:21;97328.16;;;22.10;100.00
10348;BME280;5220;43.192;23.284;2023-06-22T01:53:48;97322.38;;;22.07;100.00
10348;BME280;5220;43.192;23.284;2023-06-22T01:56:17;97318.28;;;22.04;100.00
10348;BME280;5220;43.192;23.284;2023-06-22T01:58:48;97314.47;;;21.98;100.00
10348;BME280;5220;43.192;23.284;2023-06-22T02:01:21;97319.78;;;21.98;100.00
10348;BME280;5220;43.192;23.284;2023-06-22T02:03:59;97320.31;;;21.94;100.00
10348;BME280;5220;43.192;23.284;2023-06-22T02:06:32;97321.66;;;21.90;100.00
10348;BME280;5220;43.192;23.284;2023-06-22T02:09:02;97319.19;;;21.88;100.00
10348;BME280;5220;43.192;23.284;2023-06-22T02:11:33;97311.91;;;21.82;100.00
10348;BME280;5220;43.192;23.284;2023-06-22T02:14:01;97310.94;;;21.75;100.00
10348;BME280;5220;43.192;23.284;2023-06-22T02:16:31;97309.75;;;21.78;100.00
10348;BME280;5220;43.192;23.284;2023-06-22T02:19:01;97317.06;;;21.76;100.00
10348;BME280;5220;43.192;23.284;2023-06-22T02:21:29;97319.00;;;21.82;100.00
10348;BME280;5220;43.192;23.284;2023-06-22T02:23:55;97315.53;;;21.81;100.00
10348;BME280;5220;43.192;23.284;2023-06-22T02:26:22;97322.34;;;21.76;100.00
10348;BME280;5220;43.192;23.284;2023-06-22T02:28:50;97317.50;;;21.87;100.00
10348;BME280;5220;43.192;23.284;2023-06-22T02:31:17;97322.97;;;21.94;100.00
10348;BME280;5220;43.192;23.284;2023-06-22T02:33:43;97320.94;;;21.96;100.00
10348;BME280;5220;43.192;23.284;2023-06-22T02:36:11;97313.19;;;21.94;100.00
10348;BME280;5220;43.192;23.284;2023-06-22T02:38:38;97314.66;;;21.97;100.00
10348;BME280;5220;43.192;23.284;2023-06-22T02:41:14;97319.25;;;22.03;100.00
10348;BME280;5220;43.192;23.284;2023-06-22T02:43:44;97326.66;;;22.08;100.00
10348;BME280;5220;43.192;23.284;2023-06-22T02:46:11;97326.03;;;22.06;100.00
10348;BME280;5220;43.192;23.284;2023-06-22T02:48:39;97331.16;;;22.07;100.00
10348;BME280;5220;43.192;23.284;2023-06-22T02:51:06;97334.63;;;22.08;100.00
10348;BME280;5220;43.192;23.284;2023-06-22T02:53:34;97333.34;;;22.04;100.00
10348;BME280;5220;43.192;23.284;2023-06-22T02:56:02;97337.16;;;22.01;100.00
10348;BME280;5220;43.192;23.284;2023-06-22T02:58:30;97348.41;;;22.03;100.00
10348;BME280;5220;43.192;23.284;2023-06-22T03:01:03;97357.06;;;21.97;100.00
10348;BME280;5220;43.192;23.284;2023-06-22T03:03:30;97356.69;;;22.00;100.00
10348;BME280;5220;43.192;23.284;2023-06-22T03:05:56;97357.34;;;22.02;100.00
10348;BME280;5220;43.192;23.284;2023-06-22T03:08:23;97360.66;;;22.04;100.00
10348;BME280;5220;43.192;23.284;2023-06-22T03:10:52;97349.59;;;22.01;100.00
10348;BME280;5220;43.192;23.284;2023-06-22T03:13:19;97363.66;;;22.01;100.00
10348;BME280;5220;43.192;23.284;2023-06-22T03:15:45;97365.00;;;21.97;100.00
10348;BME280;5220;43.192;23.284;2023-06-22T03:18:12;97360.03;;;21.94;100.00
10348;BME280;5220;43.192;23.284;2023-06-22T03:20:39;97365.50;;;21.92;100.00
10348;BME280;5220;43.192;23.284;2023-06-22T03:23:05;97363.03;;;21.91;100.00
10348;BME280;5220;43.192;23.284;2023-06-22T03:25:32;97364.34;;;21.87;100.00
10348;BME280;5220;43.192;23.284;2023-06-22T03:28:01;97366.16;;;21.86;100.00
10348;BME280;5220;43.192;23.284;2023-06-22T03:30:28;97369.63;;;21.87;100.00
10348;BME280;5220;43.192;23.284;2023-06-22T03:32:55;97372.63;;;21.84;100.00
10348;BME280;5220;43.192;23.284;2023-06-22T03:35:21;97369.31;;;21.90;100.00
10348;BME280;5220;43.192;23.284;2023-06-22T03:37:48;97366.34;;;21.93;100.00
10348;BME280;5220;43.192;23.284;2023-06-22T03:40:15;97377.78;;;21.77;100.00
10348;BME280;5220;43.192;23.284;2023-06-22T03:42:41;97368.97;;;21.93;100.00
10348;BME280;5220;43.192;23.284;2023-06-22T03:45:10;97371.97;;;21.98;100.00
10348;BME280;5220;43.192;23.284;2023-06-22T03:47:37;97357.56;;;21.92;100.00
10348;BME280;5220;43.192;23.284;2023-06-22T03:50:04;97361.03;;;21.93;100.00
10348;BME280;5220;43.192;23.284;2023-06-22T03:52:31;97360.66;;;22.04;100.00
10348;BME280;5220;43.192;23.284;2023-06-22T03:54:58;97359.28;;;22.16;100.00
10348;BME280;5220;43.192;23.284;2023-06-22T03:57:25;97351.44;;;22.23;100.00
10348;BME280;5220;43.192;23.284;2023-06-22T03:59:53;97344.44;;;22.30;100.00
10348;BME280;5220;43.192;23.284;2023-06-22T04:02:21;97343.91;;;22.34;100.00
10348;BME280;5220;43.192;23.284;2023-06-22T04:04:48;97334.31;;;22.33;100.00
10348;BME280;5220;43.192;23.284;2023-06-22T04:07:15;97337.38;;;22.45;100.00
10348;BME280;5220;43.192;23.284;2023-06-22T04:09:43;97329.06;;;22.48;100.00
10348;BME280;5220;43.192;23.284;2023-06-22T04:12:10;97327.56;;;22.54;100.00
10348;BME280;5220;43.192;23.284;2023-06-22T04:14:36;97331.03;;;22.54;100.00
10348;BME280;5220;43.192;23.284;2023-06-22T04:17:03;97324.13;;;22.68;100.00
10348;BME280;5220;43.192;23.284;2023-06-22T04:19:32;97325.56;;;22.78;100.00
10348;BME280;5220;43.192;23.284;2023-06-22T04:21:58;97332.59;;;22.86;100.00
10348;BME280;5220;43.192;23.284;2023-06-22T04:24:25;97330.97;;;22.85;100.00
10348;BME280;5220;43.192;23.284;2023-06-22T04:26:52;97342.69;;;22.90;100.00
10348;BME280;5220;43.192;23.284;2023-06-22T04:29:20;97340.31;;;22.95;100.00
10348;BME280;5220;43.192;23.284;2023-06-22T04:31:46;97341.06;;;23.04;100.00
10348;BME280;5220;43.192;23.284;2023-06-22T04:34:16;97344.66;;;23.11;100.00
10348;BME280;5220;43.192;23.284;2023-06-22T04:36:44;97341.94;;;23.19;100.00
10348;BME280;5220;43.192;23.284;2023-06-22T04:39:11;97338.34;;;23.27;100.00
10348;BME280;5220;43.192;23.284;2023-06-22T04:41:40;97333.97;;;23.34;100.00
10348;BME280;5220;43.192;23.284;2023-06-22T04:44:09;97336.56;;;23.42;100.00
10348;BME280;5220;43.192;23.284;2023-06-22T04:46:37;97338.31;;;23.49;100.00
10348;BME280;5220;43.192;23.284;2023-06-22T04:49:05;97343.97;;;23.61;100.00
10348;BME280;5220;43.192;23.284;2023-06-22T04:51:40;97338.66;;;23.76;100.00
10348;BME280;5220;43.192;23.284;2023-06-22T04:54:09;97336.16;;;24.03;100.00
10348;BME280;5220;43.192;23.284;2023-06-22T04:56:36;97354.56;;;24.77;100.00
10348;BME280;5220;43.192;23.284;2023-06-22T04:59:03;97349.59;;;25.72;100.00
10348;BME280;5220;43.192;23.284;2023-06-22T05:01:30;97353.19;;;26.65;100.00
10348;BME280;5220;43.192;23.284;2023-06-22T05:03:57;97359.44;;;27.51;100.00
10348;BME280;5220;43.192;23.284;2023-06-22T05:06:27;97359.22;;;28.30;100.00
10348;BME280;5220;43.192;23.284;2023-06-22T05:08:54;97365.22;;;28.95;100.00
10348;BME280;5220;43.192;23.284;2023-06-22T05:11:25;97365.56;;;29.54;100.00
10348;BME280;5220;43.192;23.284;2023-06-22T05:13:52;97366.56;;;30.14;100.00
10348;BME280;5220;43.192;23.284;2023-06-22T05:16:19;97367.44;;;30.74;100.00
10348;BME280;5220;43.192;23.284;2023-06-22T05:18:50;97361.97;;;31.34;91.56
10348;BME280;5220;43.192;23.284;2023-06-22T05:21:16;97367.72;;;31.84;84.66
10348;BME280;5220;43.192;23.284;2023-06-22T05:23:43;97361.81;;;32.22;84.99
10348;BME280;5220;43.192;23.284;2023-06-22T05:26:10;97362.66;;;32.51;83.73
10348;BME280;5220;43.192;23.284;2023-06-22T05:28:38;97366.16;;;32.79;74.09
10348;BME280;5220;43.192;23.284;2023-06-22T05:31:05;97360.53;;;33.09;69.04
10348;BME280;5220;43.192;23.284;2023-06-22T05:33:31;97368.75;;;33.36;63.89
10348;BME280;5220;43.192;23.284;2023-06-22T05:35:58;97367.19;;;33.73;59.44
10348;BME280;5220;43.192;23.284;2023-06-22T05:38:25;97367.66;;;33.87;59.78
10348;BME280;5220;43.192;23.284;2023-06-22T05:40:51;97364.41;;;34.06;61.35
10348;BME280;5220;43.192;23.284;2023-06-22T05:43:18;97368.25;;;34.11;56.33
10348;BME280;5220;43.192;23.284;2023-06-22T05:45:46;97366.06;;;33.69;58.95
10348;BME280;5220;43.192;23.284;2023-06-22T05:48:13;97368.34;;;33.11;63.67
10348;BME280;5220;43.192;23.284;2023-06-22T05:50:40;97367.09;;;32.45;66.74
10348;BME280;5220;43.192;23.284;2023-06-22T05:53:06;97379.41;;;31.89;81.79
10348;BME280;5220;43.192;23.284;2023-06-22T05:55:33;97371.78;;;31.40;89.26
10348;BME280;5220;43.192;23.284;2023-06-22T05:58:00;97376.31;;;31.05;97.10
10348;BME280;5220;43.192;23.284;2023-06-22T06:00:28;97364.09;;;30.79;90.48
10348;BME280;5220;43.192;23.284;2023-06-22T06:02:57;97356.97;;;30.84;87.03
10348;BME280;5220;43.192;23.284;2023-06-22T06:05:28;97353.09;;;30.80;89.48
10348;BME280;5220;43.192;23.284;2023-06-22T06:07:55;97364.47;;;30.64;91.97
10348;BME280;5220;43.192;23.284;2023-06-22T06:10:22;97353.88;;;30.39;92.59
10348;BME280;5220;43.192;23.284;2023-06-22T06:12:48;97365.91;;;30.19;99.16
10348;BME280;5220;43.192;23.284;2023-06-22T06:15:15;97366.38;;;29.98;100.00
10348;BME280;5220;43.192;23.284;2023-06-22T06:17:46;97369.47;;;29.76;100.00
10348;BME280;5220;43.192;23.284;2023-06-22T06:20:14;97364.50;;;29.55;100.00
10348;BME280;5220;43.192;23.284;2023-06-22T06:22:41;97365.44;;;29.43;100.00
10348;BME280;5220;43.192;23.284;2023-06-22T06:25:09;97363.50;;;29.31;100.00
10348;BME280;5220;43.192;23.284;2023-06-22T06:27:42;97364.59;;;29.24;100.00
10348;BME280;5220;43.192;23.284;2023-06-22T06:30:09;97364.91;;;29.09;100.00
10348;BME280;5220;43.192;23.284;2023-06-22T06:32:36;97364.69;;;28.86;100.00
10348;BME280;5220;43.192;23.284;2023-06-22T06:35:04;97358.81;;;28.96;100.00
10348;BME280;5220;43.192;23.284;2023-06-22T06:37:35;97364.59;;;28.93;100.00
10348;BME280;5220;43.192;23.284;2023-06-22T06:40:02;97365.47;;;29.11;100.00
10348;BME280;5220;43.192;23.284;2023-06-22T06:42:30;97365.22;;;29.19;100.00
10348;BME280;5220;43.192;23.284;2023-06-22T06:44:57;97366.25;;;28.94;100.00
10348;BME280;5220;43.192;23.284;2023-06-22T06:47:23;97368.97;;;28.87;100.00
10348;BME280;5220;43.192;23.284;2023-06-22T06:49:50;97365.91;;;29.08;100.00
10348;BME280;5220;43.192;23.284;2023-06-22T06:52:17;97360.50;;;29.15;100.00
10348;BME280;5220;43.192;23.284;2023-06-22T06:54:46;97369.91;;;29.30;100.00
10348;BME280;5220;43.192;23.284;2023-06-22T06:57:13;97373.84;;;29.28;100.00
10348;BME280;5220;43.192;23.284;2023-06-22T06:59:40;97371.16;;;29.28;100.00
10348;BME280;5220;43.192;23.284;2023-06-22T07:02:07;97385.94;;;29.06;100.00
10348;BME280;5220;43.192;23.284;2023-06-22T07:04:34;97380.63;;;29.30;100.00
10348;BME280;5220;43.192;23.284;2023-06-22T07:07:02;97388.56;;;29.44;100.00
10348;BME280;5220;43.192;23.284;2023-06-22T07:09:28;97381.88;;;29.53;100.00
10348;BME280;5220;43.192;23.284;2023-06-22T07:11:56;97381.34;;;29.62;100.00
10348;BME280;5220;43.192;23.284;2023-06-22T07:14:23;97383.69;;;29.77;100.00
10348;BME280;5220;43.192;23.284;2023-06-22T07:16:50;97387.16;;;29.84;100.00
10348;BME280;5220;43.192;23.284;2023-06-22T07:19:24;97383.94;;;29.94;100.00
10348;BME280;5220;43.192;23.284;2023-06-22T07:21:51;97377.25;;;29.84;100.00
10348;BME280;5220;43.192;23.284;2023-06-22T07:24:17;97377.66;;;29.63;100.00
10348;BME280;5220;43.192;23.284;2023-06-22T07:26:45;97369.22;;;29.78;100.00
10348;BME280;5220;43.192;23.284;2023-06-22T07:29:13;97370.50;;;29.57;100.00
10348;BME280;5220;43.192;23.284;2023-06-22T07:31:40;97372.84;;;29.47;100.00
10348;BME280;5220;43.192;23.284;2023-06-22T07:34:08;97366.56;;;29.35;100.00
10348;BME280;5220;43.192;23.284;2023-06-22T07:36:34;97378.53;;;29.08;100.00
10348;BME280;5220;43.192;23.284;2023-06-22T07:39:02;97380.53;;;29.12;100.00
10348;BME280;5220;43.192;23.284;2023-06-22T07:41:29;97380.88;;;29.22;100.00
10348;BME280;5220;43.192;23.284;2023-06-22T07:43:56;97382.03;;;29.33;100.00
10348;BME280;5220;43.192;23.284;2023-06-22T07:46:24;97385.00;;;29.25;100.00
10348;BME280;5220;43.192;23.284;2023-06-22T07:48:51;97387.41;;;29.33;100.00
10348;BME280;5220;43.192;23.284;2023-06-22T07:51:17;97384.19;;;29.24;100.00
10348;BME280;5220;43.192;23.284;2023-06-22T07:53:44;97391.97;;;29.32;100.00
10348;BME280;5220;43.192;23.284;2023-06-22T07:56:11;97384.41;;;28.92;100.00
10348;BME280;5220;43.192;23.284;2023-06-22T07:58:38;97381.28;;;28.95;100.00
10348;BME280;5220;43.192;23.284;2023-06-22T08:01:05;97386.56;;;29.08;100.00
10348;BME280;5220;43.192;23.284;2023-06-22T08:03:34;97370.63;;;29.13;100.00
10348;BME280;5220;43.192;23.284;2023-06-22T08:06:00;97367.72;;;29.14;100.00
10348;BME280;5220;43.192;23.284;2023-06-22T08:08:27;97357.75;;;29.28;100.00
10348;BME280;5220;43.192;23.284;2023-06-22T08:10:54;97367.41;;;29.36;100.00
10348;BME280;5220;43.192;23.284;2023-06-22T08:13:20;97361.59;;;29.39;100.00
10348;BME280;5220;43.192;23.284;2023-06-22T08:15:47;97359.50;;;29.41;100.00
10348;BME280;5220;43.192;23.284;2023-06-22T08:18:15;97359.75;;;29.57;100.00
10348;BME280;5220;43.192;23.284;2023-06-22T08:20:43;97367.34;;;29.60;100.00
10348;BME280;5220;43.192;23.284;2023-06-22T08:23:09;97368.03;;;29.31;100.00
10348;BME280;5220;43.192;23.284;2023-06-22T08:25:36;97360.50;;;29.15;100.00
10348;BME280;5220;43.192;23.284;2023-06-22T08:28:03;97371.34;;;29.02;100.00
10348;BME280;5220;43.192;23.284;2023-06-22T08:30:30;97366.06;;;29.20;100.00
10348;BME280;5220;43.192;23.284;2023-06-22T08:32:57;97369.75;;;29.19;100.00
10348;BME280;5220;43.192;23.284;2023-06-22T08:35:24;97367.28;;;28.93;100.00
10348;BME280;5220;43.192;23.284;2023-06-22T08:37:52;97367.44;;;29.29;100.00
10348;BME280;5220;43.192;23.284;2023-06-22T08:40:21;97367.88;;;29.51;100.00
10348;BME280;5220;43.192;23.284;2023-06-22T08:42:48;97373.22;;;29.51;100.00
10348;BME280;5220;43.192;23.284;2023-06-22T08:45:15;97377.03;;;29.61;100.00
10348;BME280;5220;43.192;23.284;2023-06-22T08:47:42;97375.69;;;29.70;100.00
10348;BME280;5220;43.192;23.284;2023-06-22T08:50:09;97371.38;;;29.69;100.00
10348;BME280;5220;43.192;23.284;2023-06-22T08:52:37;97377.06;;;29.79;100.00
10348;BME280;5220;43.192;23.284;2023-06-22T08:55:08;97377.50;;;29.76;100.00
10348;BME280;5220;43.192;23.284;2023-06-22T08:57:35;97371.81;;;29.91;100.00
10348;BME280;5220;43.192;23.284;2023-06-22T09:00:06;97358.44;;;30.03;100.00
10348;BME280;5220;43.192;23.284;2023-06-22T09:02:41;97359.41;;;30.08;100.00
10348;BME280;5220;43.192;23.284;2023-06-22T09:05:09;97348.16;;;30.18;100.00
10348;BME280;5220;43.192;23.284;2023-06-22T09:07:36;97346.66;;;30.22;100.00
10348;BME280;5220;43.192;23.284;2023-06-22T09:10:04;97352.69;;;30.17;100.00
10348;BME280;5220;43.192;23.284;2023-06-22T09:12:33;97351.25;;;30.33;100.00
10348;BME280;5220;43.192;23.284;2023-06-22T09:15:04;97350.91;;;30.29;100.00
10348;BME280;5220;43.192;23.284;2023-06-22T09:17:32;97342.94;;;30.41;100.00
10348;BME280;5220;43.192;23.284;2023-06-22T09:19:59;97341.28;;;30.40;100.00
10348;BME280;5220;43.192;23.284;2023-06-22T09:22:28;97348.56;;;30.51;100.00
10348;BME280;5220;43.192;23.284;2023-06-22T09:24:55;97344.19;;;30.38;100.00
10348;BME280;5220;43.192;23.284;2023-06-22T09:27:22;97346.47;;;30.53;100.00
10348;BME280;5220;43.192;23.284;2023-06-22T09:29:50;97346.03;;;30.68;98.66
10348;BME280;5220;43.192;23.284;2023-06-22T09:32:16;97345.84;;;30.69;96.51
10348;BME280;5220;43.192;23.284;2023-06-22T09:34:43;97345.00;;;30.69;100.00
10348;BME280;5220;43.192;23.284;2023-06-22T09:37:10;97342.34;;;30.80;100.00
10348;BME280;5220;43.192;23.284;2023-06-22T09:39:37;97350.56;;;30.56;100.00
10348;BME280;5220;43.192;23.284;2023-06-22T09:42:04;97346.75;;;30.63;100.00
10348;BME280;5220;43.192;23.284;2023-06-22T09:44:32;97348.53;;;30.81;100.00
10348;BME280;5220;43.192;23.284;2023-06-22T09:47:00;97344.00;;;30.81;100.00
10348;BME280;5220;43.192;23.284;2023-06-22T09:49:27;97348.44;;;30.87;100.00
10348;BME280;5220;43.192;23.284;2023-06-22T09:51:53;97342.72;;;30.84;100.00
10348;BME280;5220;43.192;23.284;2023-06-22T09:54:20;97347.41;;;30.88;100.00
10348;BME280;5220;43.192;23.284;2023-06-22T09:56:47;97340.38;;;30.76;100.00
10348;BME280;5220;43.192;23.284;2023-06-22T09:59:14;97348.97;;;30.66;100.00
10348;BME280;5220;43.192;23.284;2023-06-22T10:01:40;97344.66;;;30.77;100.00
10348;BME280;5220;43.192;23.284;2023-06-22T10:04:08;97345.09;;;30.62;100.00
10348;BME280;5220;43.192;23.284;2023-06-22T10:06:35;97352.69;;;30.65;100.00
10348;BME280;5220;43.192;23.284;2023-06-22T10:09:05;97345.59;;;30.71;100.00
10348;BME280;5220;43.192;23.284;2023-06-22T10:11:32;97344.09;;;30.86;100.00
10348;BME280;5220;43.192;23.284;2023-06-22T10:14:00;97347.63;;;30.87;100.00
10348;BME280;5220;43.192;23.284;2023-06-22T10:16:30;97347.44;;;31.00;100.00
10348;BME280;5220;43.192;23.284;2023-06-22T10:18:57;97342.19;;;31.05;100.00
10348;BME280;5220;43.192;23.284;2023-06-22T10:21:25;97344.88;;;31.05;100.00
10348;BME280;5220;43.192;23.284;2023-06-22T10:23:53;97340.78;;;31.03;100.00
10348;BME280;5220;43.192;23.284;2023-06-22T10:26:20;97348.94;;;30.96;100.00
10348;BME280;5220;43.192;23.284;2023-06-22T10:28:47;97344.50;;;31.02;100.00
10348;BME280;5220;43.192;23.284;2023-06-22T10:31:13;97348.63;;;31.04;100.00
10348;BME280;5220;43.192;23.284;2023-06-22T10:33:41;97342.34;;;31.22;100.00
10348;BME280;5220;43.192;23.284;2023-06-22T10:36:09;97347.59;;;31.40;100.00
10348;BME280;5220;43.192;23.284;2023-06-22T10:38:37;97354.94;;;31.33;98.08
10348;BME280;5220;43.192;23.284;2023-06-22T10:41:04;97348.69;;;31.51;96.28
10348;BME280;5220;43.192;23.284;2023-06-22T10:43:31;97352.03;;;31.46;97.78
10348;BME280;5220;43.192;23.284;2023-06-22T10:45:57;97343.88;;;31.64;100.00
10348;BME280;5220;43.192;23.284;2023-06-22T10:48:24;97349.38;;;31.69;94.28
10348;BME280;5220;43.192;23.284;2023-06-22T10:50:51;97349.72;;;31.84;98.43
10348;BME280;5220;43.192;23.284;2023-06-22T10:53:18;97353.44;;;31.83;94.85
10348;BME280;5220;43.192;23.284;2023-06-22T10:55:47;97363.31;;;31.02;94.33
10348;BME280;5220;43.192;23.284;2023-06-22T10:58:13;97352.41;;;30.85;96.80
10348;BME280;5220;43.192;23.284;2023-06-22T11:00:41;97358.69;;;31.20;95.36
10348;BME280;5220;43.192;23.284;2023-06-22T11:03:07;97355.31;;;31.25;96.28
10348;BME280;5220;43.192;23.284;2023-06-22T11:05:34;97352.13;;;31.05;95.81
10348;BME280;5220;43.192;23.284;2023-06-22T11:08:01;97361.63;;;31.19;97.15
10348;BME280;5220;43.192;23.284;2023-06-22T11:10:28;97366.25;;;31.00;98.81
10348;BME280;5220;43.192;23.284;2023-06-22T11:12:56;97363.91;;;30.62;98.41
10348;BME280;5220;43.192;23.284;2023-06-22T11:15:23;97372.00;;;30.74;95.13
10348;BME280;5220;43.192;23.284;2023-06-22T11:17:50;97365.91;;;30.97;91.36
10348;BME280;5220;43.192;23.284;2023-06-22T11:20:17;97368.34;;;30.98;91.51
10348;BME280;5220;43.192;23.284;2023-06-22T11:22:44;97368.69;;;31.02;94.44
10348;BME280;5220;43.192;23.284;2023-06-22T11:25:11;97374.06;;;31.02;96.59
10348;BME280;5220;43.192;23.284;2023-06-22T11:27:39;97389.25;;;30.00;100.00
10348;BME280;5220;43.192;23.284;2023-06-22T11:30:09;97377.88;;;30.53;100.00
10348;BME280;5220;43.192;23.284;2023-06-22T11:32:36;97382.66;;;30.51;100.00
10348;BME280;5220;43.192;23.284;2023-06-22T11:35:04;97378.25;;;30.56;100.00
10348;BME280;5220;43.192;23.284;2023-06-22T11:37:30;97380.88;;;30.26;100.00
10348;BME280;5220;43.192;23.284;2023-06-22T11:39:57;97378.25;;;30.56;100.00
10348;BME280;5220;43.192;23.284;2023-06-22T11:42:24;97370.00;;;30.69;100.00
10348;BME280;5220;43.192;23.284;2023-06-22T11:44:51;97368.09;;;30.58;100.00
10348;BME280;5220;43.192;23.284;2023-06-22T11:47:19;97368.16;;;30.70;100.00
10348;BME280;5220;43.192;23.284;2023-06-22T11:49:47;97374.31;;;30.70;100.00
10348;BME280;5220;43.192;23.284;2023-06-22T11:52:14;97365.47;;;30.81;100.00
10348;BME280;5220;43.192;23.284;2023-06-22T11:54:45;97365.13;;;30.78;100.00
10348;BME280;5220;43.192;23.284;2023-06-22T11:57:16;97354.03;;;30.86;100.00
10348;BME280;5220;43.192;23.284;2023-06-22T11:59:44;97359.47;;;30.98;100.00
10348;BME280;5220;43.192;23.284;2023-06-22T12:02:11;97364.19;;;30.72;100.00
10348;BME280;5220;43.192;23.284;2023-06-22T12:04:39;97362.66;;;30.76;100.00
10348;BME280;5220;43.192;23.284;2023-06-22T12:07:06;97358.19;;;31.00;100.00
10348;BME280;5220;43.192;23.284;2023-06-22T12:09:33;97354.59;;;31.18;100.00
10348;BME280;5220;43.192;23.284;2023-06-22T12:11:59;97351.22;;;31.22;100.00
10348;BME280;5220;43.192;23.284;2023-06-22T12:14:26;97347.59;;;31.40;100.00
10348;BME280;5220;43.192;23.284;2023-06-22T12:16:53;97355.19;;;31.43;100.00
10348;BME280;5220;43.192;23.284;2023-06-22T12:19:19;97350.88;;;31.30;100.00
10348;BME280;5220;43.192;23.284;2023-06-22T12:21:47;97347.97;;;30.90;100.00
10348;BME280;5220;43.192;23.284;2023-06-22T12:24:14;97346.28;;;31.08;100.00
10348;BME280;5220;43.192;23.284;2023-06-22T12:26:41;97342.09;;;31.23;100.00
10348;BME280;5220;43.192;23.284;2023-06-22T12:29:08;97340.94;;;31.19;100.00
10348;BME280;5220;43.192;23.284;2023-06-22T12:31:35;97334.28;;;30.92;100.00
10348;BME280;5220;43.192;23.284;2023-06-22T12:34:04;97336.69;;;31.00;100.00
10348;BME280;5220;43.192;23.284;2023-06-22T12:36:30;97338.38;;;30.83;100.00
10348;BME280;5220;43.192;23.284;2023-06-22T12:38:58;97330.88;;;30.73;100.00
10348;BME280;5220;43.192;23.284;2023-06-22T12:41:25;97333.97;;;30.88;100.00
10348;BME280;5220;43.192;23.284;2023-06-22T12:43:52;97342.34;;;30.80;100.00
10348;BME280;5220;43.192;23.284;2023-06-22T12:46:18;97348.00;;;30.61;100.00
10348;BME280;5220;43.192;23.284;2023-06-22T12:48:45;97351.97;;;30.58;100.00
10348;BME280;5220;43.192;23.284;2023-06-22T12:51:20;97348.00;;;30.61;100.00
10348;BME280;5220;43.192;23.284;2023-06-22T12:53:47;97343.44;;;30.61;100.00